Time;durP1;ratioP1;P1;durP2;ratioP2;P2;SDS_P1;SDS_P2;PMS_P1;PMS_P2;Temp;Humidity;BMP_temperature;BMP_pressure;BME280_temperature;BME280_humidity;BME280_pressure;Samples;Min_cycle;Max_cycle;Signal;HPM_P1;HPM_P2
2021/09/26 00:02:27;;;;;;;14.95;13.40;;;;;;;15.82;81.39;99261.73;2183036;82;21034;-81
2021/09/26 00:05:28;;;;;;;17.90;13.13;;;;;;;15.81;81.46;99263.93;2182998;81;21351;-81
2021/09/26 00:08:29;;;;;;;14.55;12.75;;;;;;;15.79;81.62;99257.80;2183345;82;20991;-81
2021/09/26 00:11:29;;;;;;;18.95;13.30;;;;;;;15.79;81.63;99263.06;2183333;82;20991;-81
2021/09/26 00:14:30;;;;;;;18.23;13.48;;;;;;;15.79;82.14;99273.59;2182840;81;20987;-81
2021/09/26 00:17:30;;;;;;;14.90;13.38;;;;;;;15.79;82.14;99273.59;2182707;82;21027;-81
2021/09/26 00:20:31;;;;;;;17.60;13.95;;;;;;;15.78;81.90;99274.47;2183057;82;21027;-82
2021/09/26 00:23:32;;;;;;;15.68;13.60;;;;;;;15.78;81.96;99276.22;2183240;81;21488;-81
2021/09/26 00:26:33;;;;;;;20.27;13.95;;;;;;;15.78;82.03;99270.52;2183381;82;20960;-82
2021/09/26 00:29:33;;;;;;;16.17;14.07;;;;;;;15.79;82.01;99268.77;2183428;82;21014;-81
2021/09/26 00:32:34;;;;;;;17.00;14.55;;;;;;;15.79;82.06;99263.50;2182993;82;21063;-81
2021/09/26 00:35:34;;;;;;;15.03;13.32;;;;;;;15.77;82.06;99263.50;2183212;82;20956;-81
2021/09/26 00:38:35;;;;;;;16.25;13.43;;;;;;;15.76;82.07;99267.02;2182847;82;20964;-82
2021/09/26 00:41:35;;;;;;;14.83;12.90;;;;;;;15.74;82.19;99268.77;2183197;82;21022;-81
2021/09/26 00:44:36;;;;;;;15.98;13.93;;;;;;;15.74;82.25;99269.22;2182943;82;21046;-81
2021/09/26 00:47:36;;;;;;;20.88;13.98;;;;;;;15.74;82.41;99267.45;2183321;82;20943;-81
2021/09/26 00:50:37;;;;;;;15.10;13.30;;;;;;;15.74;82.38;99275.36;2183289;82;21019;-81
2021/09/26 00:53:38;;;;;;;19.92;14.15;;;;;;;15.74;82.42;99272.72;2183128;82;21020;-81
2021/09/26 00:56:38;;;;;;;16.32;13.53;;;;;;;15.75;82.49;99274.47;2183336;81;20936;-81
2021/09/26 00:59:39;;;;;;;15.10;13.48;;;;;;;15.74;82.53;99269.22;2183391;82;20938;-81
2021/09/26 01:02:39;;;;;;;17.87;14.43;;;;;;;15.74;82.61;99267.89;2182839;82;21062;-81
2021/09/26 01:05:39;;;;;;;15.60;13.95;;;;;;;15.73;82.61;99272.28;2182749;82;21011;-80
2021/09/26 01:08:40;;;;;;;17.37;15.08;;;;;;;15.72;82.70;99275.80;2183042;82;20947;-81
2021/09/26 01:11:40;;;;;;;18.45;15.35;;;;;;;15.72;82.73;99278.42;2182686;82;20976;-80
2021/09/26 01:14:41;;;;;;;15.90;14.25;;;;;;;15.69;82.80;99278.44;2183177;82;20988;-80
2021/09/26 01:17:42;;;;;;;18.12;15.08;;;;;;;15.69;82.82;99279.75;2183199;81;20949;-80
2021/09/26 01:20:42;;;;;;;17.77;15.85;;;;;;;15.67;82.88;99276.25;2183165;82;20967;-81
2021/09/26 01:23:43;;;;;;;17.80;14.58;;;;;;;15.66;82.87;99277.56;2182925;82;20944;-81
2021/09/26 01:26:43;;;;;;;18.85;14.80;;;;;;;15.66;83.04;99278.44;2183219;82;20972;-80
2021/09/26 01:29:44;;;;;;;18.17;15.08;;;;;;;15.67;83.06;99277.56;2183051;82;20960;-81
2021/09/26 01:32:45;;;;;;;17.00;15.20;;;;;;;15.68;83.09;99279.75;2182619;81;21122;-80
2021/09/26 01:35:46;;;;;;;17.52;15.28;;;;;;;15.70;83.13;99278.88;2183038;82;20968;-80
2021/09/26 01:38:46;;;;;;;16.17;14.47;;;;;;;15.70;83.06;99281.50;2183133;81;20944;-80
2021/09/26 01:41:47;;;;;;;17.37;15.05;;;;;;;15.69;83.10;99281.06;2182945;82;20967;-81
2021/09/26 01:44:47;;;;;;;19.05;15.85;;;;;;;15.69;83.13;99282.38;2183007;82;20990;-80
2021/09/26 01:47:48;;;;;;;21.02;16.15;;;;;;;15.71;83.14;99282.38;2183093;82;21303;-81
2021/09/26 01:50:48;;;;;;;16.15;14.25;;;;;;;15.70;83.11;99292.03;2182937;82;20959;-81
2021/09/26 01:53:49;;;;;;;19.17;15.55;;;;;;;15.71;83.14;99296.86;2183376;82;20971;-80
2021/09/26 01:56:49;;;;;;;17.32;14.83;;;;;;;15.71;83.15;99299.05;2182508;82;20990;-80
2021/09/26 01:59:50;;;;;;;21.23;15.27;;;;;;;15.71;83.10;99300.36;2182476;82;20995;-80
2021/09/26 02:02:50;;;;;;;20.92;15.25;;;;;;;15.71;83.11;99292.91;2182509;81;21062;-80
2021/09/26 02:05:51;;;;;;;22.30;15.43;;;;;;;15.71;83.26;99291.59;2183169;82;20987;-80
2021/09/26 02:08:51;;;;;;;19.77;14.65;;;;;;;15.71;83.26;99291.59;2183125;81;21007;-80
2021/09/26 02:11:52;;;;;;;15.28;13.68;;;;;;;15.69;83.16;99293.34;2182929;82;20999;-81
2021/09/26 02:14:53;;;;;;;19.05;14.13;;;;;;;15.68;83.21;99298.17;2183202;82;21402;-80
2021/09/26 02:17:53;;;;;;;15.95;14.35;;;;;;;15.67;83.38;99295.98;2183147;82;20992;-80
2021/09/26 02:20:54;;;;;;;17.00;14.50;;;;;;;15.67;83.47;99295.98;2182752;82;21023;-80
2021/09/26 02:23:54;;;;;;;18.15;14.25;;;;;;;15.68;83.51;99298.17;2182588;82;21006;-80
2021/09/26 02:26:55;;;;;;;20.80;15.98;;;;;;;15.68;83.36;99296.42;2182635;81;21273;-80
2021/09/26 02:29:55;;;;;;;16.37;14.40;;;;;;;15.67;83.50;99299.93;2183499;82;20964;-80
2021/09/26 02:32:56;;;;;;;17.95;15.25;;;;;;;15.67;83.49;99303.88;2182581;80;21043;-80
2021/09/26 02:35:56;;;;;;;18.00;15.13;;;;;;;15.65;83.48;99306.95;2183091;82;21367;-80
2021/09/26 02:38:57;;;;;;;17.25;15.45;;;;;;;15.66;83.61;99303.88;2182974;81;20925;-80
2021/09/26 02:41:57;;;;;;;17.67;14.35;;;;;;;15.65;83.63;99310.89;2182964;82;20983;-80
2021/09/26 02:44:58;;;;;;;14.90;13.32;;;;;;;15.67;83.72;99309.14;2183244;81;21030;-80
2021/09/26 02:47:58;;;;;;;17.45;13.95;;;;;;;15.67;83.65;99317.03;2183049;82;20976;-80
2021/09/26 02:50:59;;;;;;;15.50;13.88;;;;;;;15.65;83.68;99312.21;2182830;82;21359;-80
2021/09/26 02:53:59;;;;;;;20.37;14.35;;;;;;;15.65;83.77;99316.16;2183317;82;21008;-80
2021/09/26 02:57:00;;;;;;;15.75;14.13;;;;;;;15.63;83.80;99317.91;2183289;81;20971;-80
2021/09/26 03:00:00;;;;;;;15.95;14.23;;;;;;;15.63;83.86;99327.12;2182644;82;21011;-80
2021/09/26 03:03:01;;;;;;;16.70;14.23;;;;;;;15.59;83.65;99317.01;2182795;82;21415;-80
2021/09/26 03:06:01;;;;;;;15.90;13.60;;;;;;;15.59;83.65;99317.01;2183312;82;21050;-80
2021/09/26 03:09:02;;;;;;;15.58;13.88;;;;;;;15.61;83.80;99326.25;2183178;81;20988;-80
2021/09/26 03:12:02;;;;;;;19.82;13.98;;;;;;;15.61;83.80;99326.25;2183351;81;20964;-80
2021/09/26 03:15:03;;;;;;;18.82;14.58;;;;;;;15.60;83.99;99328.01;2183321;81;20971;-80
2021/09/26 03:18:03;;;;;;;15.25;13.65;;;;;;;15.60;84.09;99329.32;2183139;82;20982;-81
2021/09/26 03:21:04;;;;;;;15.85;13.55;;;;;;;15.59;84.13;99334.55;2182587;82;21401;-80
2021/09/26 03:24:04;;;;;;;15.48;13.83;;;;;;;15.58;84.10;99327.09;2182535;82;21433;-80
2021/09/26 03:27:08;;;;;;;16.73;14.90;;;;;;;15.58;84.19;99330.17;2182811;82;20991;-81
2021/09/26 03:30:07;;;;;;;16.45;14.55;;;;;;;15.58;84.20;99327.09;2182883;82;20983;-80
2021/09/26 03:33:08;;;;;;;22.13;14.93;;;;;;;15.56;84.23;99336.71;2181565;80;21429;-82
2021/09/26 03:36:08;;;;;;;17.00;14.20;;;;;;;15.53;84.34;99337.15;2181359;82;20919;-81
2021/09/26 03:39:09;;;;;;;16.40;13.78;;;;;;;15.53;84.34;99337.15;2181378;82;20907;-80
2021/09/26 03:45:26;;;;;;;16.65;13.83;;;;;;;15.53;84.41;99338.47;2239672;79;22851;-81
2021/09/26 03:48:26;;;;;;;17.15;14.28;;;;;;;15.46;84.42;99335.40;2190403;80;21368;-81
2021/09/26 03:51:27;;;;;;;17.85;14.70;;;;;;;15.46;84.46;99336.27;2190476;81;20996;-80
2021/09/26 03:54:27;;;;;;;16.07;13.48;;;;;;;15.44;84.57;99331.89;2189976;81;21587;-80
2021/09/26 03:57:28;;;;;;;16.93;13.75;;;;;;;15.39;84.51;99331.02;2189916;81;21415;-80
2021/09/26 04:00:28;;;;;;;17.73;14.43;;;;;;;15.35;84.62;99333.20;2189899;81;21082;-81
2021/09/26 04:03:29;;;;;;;16.27;13.90;;;;;;;15.35;84.77;99336.71;2189929;81;21008;-80
2021/09/26 04:06:30;;;;;;;15.18;13.72;;;;;;;15.36;84.83;99332.33;2189439;81;21075;-80
2021/09/26 04:09:30;;;;;;;15.53;13.93;;;;;;;15.33;84.85;99331.02;2189970;81;21011;-80
2021/09/26 04:12:31;;;;;;;16.02;14.35;;;;;;;15.33;84.92;99328.38;2190106;81;20959;-80
2021/09/26 04:15:31;;;;;;;17.35;14.07;;;;;;;15.35;84.96;99329.27;2190394;81;20936;-80
2021/09/26 04:18:32;;;;;;;14.98;13.48;;;;;;;15.32;84.94;99326.62;2190735;81;20956;-80
2021/09/26 04:21:32;;;;;;;16.12;14.40;;;;;;;15.31;85.03;99332.33;2190247;81;20971;-80
2021/09/26 04:24:33;;;;;;;16.67;13.78;;;;;;;15.30;85.08;99326.62;2189959;81;21047;-81
2021/09/26 04:27:34;;;;;;;17.00;15.20;;;;;;;15.27;85.11;99331.45;2190173;81;20956;-80
2021/09/26 04:30:36;;;;;;;16.45;14.35;;;;;;;15.27;85.16;99336.70;2190253;81;20983;-80
2021/09/26 04:33:37;;;;;;;19.23;13.85;;;;;;;15.28;85.33;99332.33;2190149;81;21320;-80
2021/09/26 04:36:37;;;;;;;17.05;14.18;;;;;;;15.24;85.22;99339.77;2190129;81;21005;-80
2021/09/26 04:39:38;;;;;;;18.67;14.20;;;;;;;15.22;85.32;99337.14;2190254;81;20943;-81
2021/09/26 04:42:38;;;;;;;15.83;13.03;;;;;;;15.24;85.52;99339.34;2190129;81;20944;-81
2021/09/26 04:45:39;;;;;;;17.20;15.03;;;;;;;15.21;85.42;99340.64;2190339;81;20999;-83
2021/09/26 04:48:39;;;;;;;16.55;14.70;;;;;;;15.15;85.51;99348.97;2190447;81;20952;-82
2021/09/26 04:51:40;;;;;;;15.48;13.80;;;;;;;15.15;85.75;99340.64;2190146;81;20972;-80
2021/09/26 04:54:41;;;;;;;19.37;14.95;;;;;;;15.15;85.74;99347.21;2189559;81;21384;-80
2021/09/26 04:57:41;;;;;;;16.10;13.48;;;;;;;15.17;85.85;99347.22;2189101;81;21410;-80
2021/09/26 05:00:42;;;;;;;17.52;14.50;;;;;;;15.20;85.92;99347.22;2189417;81;20929;-81
2021/09/26 05:03:42;;;;;;;17.48;14.35;;;;;;;15.23;86.01;99349.41;2189380;81;20992;-80
2021/09/26 05:06:43;;;;;;;16.62;14.40;;;;;;;15.25;85.81;99352.05;2189482;81;20956;-81
2021/09/26 05:09:43;;;;;;;15.10;13.50;;;;;;;15.28;85.84;99351.61;2189305;81;20972;-80
2021/09/26 05:12:44;;;;;;;16.15;14.55;;;;;;;15.29;85.78;99351.17;2189380;81;21403;-80
2021/09/26 05:15:44;;;;;;;16.80;14.63;;;;;;;15.31;85.84;99352.05;2189178;81;20991;-80
2021/09/26 05:18:45;;;;;;;17.85;15.80;;;;;;;15.33;85.80;99353.37;2188937;81;20989;-80
2021/09/26 05:21:46;;;;;;;17.27;15.48;;;;;;;15.36;85.86;99350.30;2188440;81;20996;-80
2021/09/26 05:24:46;;;;;;;16.93;14.73;;;;;;;15.42;85.88;99356.00;2188754;81;21434;-80
2021/09/26 05:27:47;;;;;;;18.98;16.45;;;;;;;15.42;85.76;99355.56;2188760;81;20976;-81
2021/09/26 05:30:47;;;;;;;22.00;17.15;;;;;;;15.43;85.74;99361.70;2188740;81;20968;-80
2021/09/26 05:33:48;;;;;;;19.77;15.45;;;;;;;15.46;85.80;99361.27;2188944;81;20968;-80
2021/09/26 05:36:49;;;;;;;18.15;15.38;;;;;;;15.50;85.81;99363.46;2189437;81;20996;-80
2021/09/26 05:39:49;;;;;;;18.27;14.98;;;;;;;15.54;85.81;99368.73;2189349;81;20950;-80
2021/09/26 05:42:50;;;;;;;20.23;16.85;;;;;;;15.56;85.76;99370.04;2189302;81;20968;-81
2021/09/26 05:45:50;;;;;;;17.52;15.65;;;;;;;15.59;85.70;99371.39;2189634;81;21348;-79
2021/09/26 05:48:51;;;;;;;23.07;16.05;;;;;;;15.62;85.82;99368.80;2189720;81;21328;-80
2021/09/26 05:51:52;;;;;;;18.05;16.15;;;;;;;15.66;85.77;99367.91;2189729;81;20996;-80
2021/09/26 05:54:52;;;;;;;22.50;17.50;;;;;;;15.70;85.75;99368.79;2189642;81;20975;-80
2021/09/26 05:57:53;;;;;;;20.25;17.45;;;;;;;15.74;85.73;99374.48;2189653;81;20995;-80
2021/09/26 06:00:53;;;;;;;26.17;19.40;;;;;;;15.79;85.64;99380.62;2189653;81;20979;-80
2021/09/26 06:03:54;;;;;;;22.65;18.05;;;;;;;15.83;85.58;99377.99;2189618;81;21390;-80
2021/09/26 06:06:56;;;;;;;24.70;18.15;;;;;;;15.89;85.71;99379.30;2189003;81;21387;-80
2021/09/26 06:09:56;;;;;;;25.90;18.80;;;;;;;15.95;85.61;99381.05;2188844;81;21000;-79
2021/09/26 06:12:57;;;;;;;25.32;17.20;;;;;;;15.99;85.38;99380.61;2189066;81;20972;-80
2021/09/26 06:15:59;;;;;;;23.85;17.92;;;;;;;16.05;85.35;99379.28;2189402;81;21035;-80
2021/09/26 06:19:00;;;;;;;20.65;17.25;;;;;;;16.11;85.37;99381.91;2189587;81;20967;-80
2021/09/26 06:22:00;;;;;;;27.80;19.25;;;;;;;16.20;85.35;99383.20;2190297;81;20987;-80
2021/09/26 06:25:01;;;;;;;21.65;18.40;;;;;;;16.22;85.15;99387.59;2189625;81;20988;-80
2021/09/26 06:28:01;;;;;;;24.43;19.48;;;;;;;16.28;85.23;99394.59;2189566;81;21003;-80
2021/09/26 06:31:02;;;;;;;23.27;19.42;;;;;;;16.33;85.05;99398.09;2189757;81;21331;-80
2021/09/26 06:34:02;;;;;;;31.05;19.95;;;;;;;16.37;84.82;99396.33;2189772;81;20956;-80
2021/09/26 06:37:03;;;;;;;23.32;19.50;;;;;;;16.40;84.63;99406.42;2189642;81;21019;-80
2021/09/26 06:40:03;;;;;;;25.75;21.15;;;;;;;16.45;84.42;99405.97;2189753;81;21007;-80
2021/09/26 06:43:04;;;;;;;24.98;20.48;;;;;;;16.50;84.11;99409.94;2189719;81;20995;-80
2021/09/26 06:46:04;;;;;;;32.13;23.77;;;;;;;16.54;83.85;99413.87;2172926;81;21043;-80
2021/09/26 06:49:05;;;;;;;33.92;26.80;;;;;;;16.58;83.67;99412.55;2172843;81;20972;-80
2021/09/26 06:52:05;;;;;;;32.42;25.60;;;;;;;16.66;83.55;99419.58;2172921;81;20953;-81
2021/09/26 06:55:06;;;;;;;31.80;26.37;;;;;;;16.73;83.15;99419.12;2173269;81;20945;-80
2021/09/26 06:58:06;;;;;;;31.48;24.95;;;;;;;16.82;83.04;99415.13;2172659;81;20953;-81
2021/09/26 07:01:08;;;;;;;27.85;21.97;;;;;;;16.88;82.67;99419.05;2172458;81;21000;-81
2021/09/26 07:04:08;;;;;;;26.93;21.60;;;;;;;16.95;82.56;99420.78;2172609;81;21067;-81
2021/09/26 07:07:09;;;;;;;26.27;21.17;;;;;;;17.03;82.32;99420.74;2172607;82;21359;-80
2021/09/26 07:10:10;;;;;;;24.72;20.68;;;;;;;17.13;81.88;99424.64;2172912;81;20945;-80
2021/09/26 07:13:10;;;;;;;27.73;22.05;;;;;;;17.22;81.64;99427.67;2172771;81;20968;-80
2021/09/26 07:16:11;;;;;;;22.75;20.25;;;;;;;17.31;81.60;99430.25;2172732;81;21028;-80
2021/09/26 07:19:12;;;;;;;29.45;21.02;;;;;;;17.41;81.28;99429.79;2172792;81;21379;-80
2021/09/26 07:22:13;;;;;;;22.67;19.25;;;;;;;17.50;81.02;99424.00;2172420;81;21008;-80
2021/09/26 07:25:13;;;;;;;22.67;19.50;;;;;;;17.59;80.70;99427.03;2172076;81;21367;-81
2021/09/26 07:28:14;;;;;;;23.32;18.73;;;;;;;17.68;80.61;99427.44;2172842;81;21035;-80
2021/09/26 07:31:15;;;;;;;17.42;15.48;;;;;;;17.78;80.58;99431.31;2173019;81;20960;-80
2021/09/26 07:34:15;;;;;;;18.65;15.70;;;;;;;17.89;80.50;99431.22;2173116;81;20929;-80
2021/09/26 07:37:15;;;;;;;18.15;16.05;;;;;;;17.96;80.21;99434.24;2172890;81;20961;-80
2021/09/26 07:40:16;;;;;;;20.77;16.45;;;;;;;18.03;79.85;99438.58;2173041;81;20929;-80
2021/09/26 07:43:17;;;;;;;18.55;16.70;;;;;;;18.12;79.56;99440.27;2172775;81;20960;-81
2021/09/26 07:46:17;;;;;;;17.40;15.63;;;;;;;18.19;79.39;99445.92;2172571;81;20993;-80
2021/09/26 07:49:18;;;;;;;17.25;15.53;;;;;;;18.27;79.33;99446.77;2172878;81;20972;-81
2021/09/26 07:52:18;;;;;;;16.23;14.58;;;;;;;18.36;79.22;99447.99;2172876;81;20933;-81
2021/09/26 07:55:19;;;;;;;19.42;14.45;;;;;;;18.46;78.59;99447.01;2172903;81;21247;-80
2021/09/26 07:58:19;;;;;;;18.25;15.70;;;;;;;18.48;78.46;99454.92;2172834;81;20972;-81
2021/09/26 08:01:20;;;;;;;17.15;14.30;;;;;;;18.54;78.28;99455.30;2172560;82;20960;-81
2021/09/26 08:04:20;;;;;;;15.72;13.95;;;;;;;18.62;77.90;99453.48;2172980;81;21023;-81
2021/09/26 08:07:21;;;;;;;15.60;13.98;;;;;;;18.66;77.81;99454.76;2172869;81;21356;-80
2021/09/26 08:10:21;;;;;;;18.00;14.13;;;;;;;18.74;77.58;99458.64;2173047;81;21004;-81
2021/09/26 08:13:22;;;;;;;14.30;12.90;;;;;;;18.81;77.41;99459.00;2173001;81;20992;-81
2021/09/26 08:16:22;;;;;;;14.45;12.58;;;;;;;18.86;76.75;99457.63;2172970;81;21016;-82
2021/09/26 08:19:23;;;;;;;18.02;13.53;;;;;;;18.86;76.75;99457.63;2172896;81;20988;-81
2021/09/26 08:22:24;;;;;;;14.15;12.75;;;;;;;18.84;76.36;99449.70;2172645;81;21407;-80
2021/09/26 08:25:25;;;;;;;18.17;16.02;;;;;;;18.88;76.73;99460.67;2172515;81;21044;-81
2021/09/26 08:28:25;;;;;;;18.37;15.70;;;;;;;18.89;76.05;99457.14;2172508;81;20945;-81
2021/09/26 08:31:26;;;;;;;18.20;15.20;;;;;;;18.94;75.96;99459.28;2172824;81;20948;-81
2021/09/26 08:34:27;;;;;;;16.93;15.15;;;;;;;19.00;75.93;99457.00;2172563;81;20953;-81
2021/09/26 08:37:27;;;;;;;17.42;15.53;;;;;;;19.08;75.73;99453.40;2172431;81;20977;-81
2021/09/26 08:40:28;;;;;;;19.12;17.07;;;;;;;19.13;74.60;99457.76;2172714;81;20933;-81
2021/09/26 08:43:28;;;;;;;19.45;15.60;;;;;;;19.14;75.25;99457.73;2172751;81;20989;-81
2021/09/26 08:46:28;;;;;;;19.37;15.60;;;;;;;19.20;75.28;99459.42;2172187;81;21051;-80
2021/09/26 08:49:30;;;;;;;16.90;15.10;;;;;;;19.23;75.05;99453.64;2172451;81;20956;-81
2021/09/26 08:52:31;;;;;;;16.27;14.58;;;;;;;19.31;75.13;99457.52;2172655;81;21389;-80
2021/09/26 08:55:31;;;;;;;18.85;16.30;;;;;;;19.42;74.79;99466.18;2172485;82;21356;-80
2021/09/26 08:58:32;;;;;;;19.73;15.30;;;;;;;19.47;74.65;99468.31;2172571;81;21369;-80
2021/09/26 09:01:32;;;;;;;17.57;15.78;;;;;;;19.60;74.41;99468.59;2172525;81;21360;-80
2021/09/26 09:04:33;;;;;;;17.23;15.43;;;;;;;19.69;74.07;99468.45;2172672;81;21011;-81
2021/09/26 09:07:34;;;;;;;19.80;15.60;;;;;;;19.79;73.51;99465.67;2172654;81;20984;-81
2021/09/26 09:10:34;;;;;;;17.35;14.33;;;;;;;19.81;73.03;99463.42;2172140;81;20985;-80
2021/09/26 09:13:35;;;;;;;17.77;14.40;;;;;;;19.92;73.18;99463.25;2173075;81;21324;-80
2021/09/26 09:16:35;;;;;;;19.27;14.38;;;;;;;20.00;73.03;99460.06;2173058;81;20992;-80
2021/09/26 09:19:37;;;;;;;14.87;13.32;;;;;;;20.12;72.99;99460.30;2173056;81;20940;-81
2021/09/26 09:22:38;;;;;;;16.60;14.90;;;;;;;20.25;72.68;99464.05;2173028;81;20952;-80
2021/09/26 09:25:38;;;;;;;15.13;13.60;;;;;;;20.34;72.01;99459.91;2173012;81;20965;-80
2021/09/26 09:28:39;;;;;;;17.77;13.25;;;;;;;20.46;71.94;99459.29;2172973;82;20981;-81
2021/09/26 09:31:40;;;;;;;15.15;12.53;;;;;;;20.59;71.62;99464.79;2172975;81;20996;-81
2021/09/26 09:34:41;;;;;;;19.52;13.25;;;;;;;20.75;71.01;99464.92;2173034;81;21324;-80
2021/09/26 09:37:41;;;;;;;17.00;13.25;;;;;;;20.87;70.49;99468.69;2172607;81;21367;-81
2021/09/26 09:40:42;;;;;;;16.23;13.03;;;;;;;20.96;70.38;99464.52;2172587;81;21031;-80
2021/09/26 09:43:42;;;;;;;20.88;13.75;;;;;;;21.05;69.69;99460.80;2172441;81;21060;-80
2021/09/26 09:46:43;;;;;;;15.18;13.60;;;;;;;21.18;69.77;99464.95;2172588;81;20993;-80
2021/09/26 09:49:43;;;;;;;19.35;13.98;;;;;;;21.36;69.23;99469.02;2172830;82;21297;-79
2021/09/26 09:52:46;;;;;;;14.78;12.30;;;;;;;21.42;68.82;99469.34;2172875;81;21296;-80
2021/09/26 09:55:46;;;;;;;13.40;12.03;;;;;;;21.54;67.36;99465.95;2173033;81;20987;-80
2021/09/26 09:58:47;;;;;;;16.17;12.78;;;;;;;21.58;67.88;99464.98;2173097;81;20981;-80
2021/09/26 10:01:47;;;;;;;19.05;13.22;;;;;;;21.71;67.64;99462.07;2172848;81;21369;-80
2021/09/26 10:04:48;;;;;;;15.18;12.15;;;;;;;21.74;66.95;99469.52;2172950;81;21024;-80
2021/09/26 10:07:48;;;;;;;17.82;12.58;;;;;;;21.75;67.04;99469.06;2172567;81;20977;-80
2021/09/26 10:10:48;;;;;;;14.58;11.90;;;;;;;21.83;66.93;99468.42;2172256;81;20972;-79
2021/09/26 10:13:49;;;;;;;13.48;12.00;;;;;;;21.88;66.66;99471.84;2172496;81;21013;-80
2021/09/26 10:16:49;;;;;;;12.88;10.93;;;;;;;21.91;66.38;99472.64;2172441;81;21059;-80
2021/09/26 10:19:50;;;;;;;12.40;10.85;;;;;;;21.98;66.62;99472.04;2172824;81;20972;-81
2021/09/26 10:22:50;;;;;;;17.02;11.38;;;;;;;22.09;66.20;99468.70;2172731;81;21376;-81
2021/09/26 10:25:52;;;;;;;12.03;10.10;;;;;;;22.16;65.77;99474.28;2173462;82;20964;-81
2021/09/26 10:28:52;;;;;;;11.53;10.32;;;;;;;22.23;65.80;99471.00;2173138;81;20913;-81
2021/09/26 10:31:53;;;;;;;11.83;10.63;;;;;;;22.33;65.27;99471.64;2173015;81;21005;-80
2021/09/26 10:34:53;;;;;;;10.78;9.55;;;;;;;22.38;65.11;99474.59;2173403;81;20925;-80
2021/09/26 10:37:54;;;;;;;11.73;10.63;;;;;;;22.43;64.41;99477.14;2172873;81;21344;-81
2021/09/26 10:40:55;;;;;;;11.20;9.80;;;;;;;22.49;64.34;99470.33;2173108;81;20937;-81
2021/09/26 10:43:55;;;;;;;9.25;8.33;;;;;;;22.63;64.05;99464.21;2172948;81;20972;-80
2021/09/26 10:46:56;;;;;;;9.63;8.63;;;;;;;22.76;63.68;99468.73;2172486;81;21058;-80
2021/09/26 10:49:56;;;;;;;16.23;8.58;;;;;;;22.83;63.22;99466.36;2172553;81;21371;-80
2021/09/26 10:52:57;;;;;;;9.70;8.08;;;;;;;22.91;62.96;99460.81;2172268;81;21004;-79
2021/09/26 10:55:57;;;;;;;9.53;7.95;;;;;;;22.90;61.90;99459.94;2172930;81;21348;-80
2021/09/26 10:58:58;;;;;;;9.03;7.30;;;;;;;22.78;61.60;99451.81;2173145;81;20988;-78
2021/09/26 11:01:58;;;;;;;9.60;7.55;;;;;;;22.91;62.01;99444.84;2172542;81;20980;-80
2021/09/26 11:04:59;;;;;;;10.18;7.75;;;;;;;23.20;61.55;99448.86;2172521;81;20956;-80
2021/09/26 11:07:59;;;;;;;10.63;7.80;;;;;;;23.31;60.79;99443.20;2173157;82;20961;-80
2021/09/26 11:11:04;;;;;;;8.63;6.53;;;;;;;23.37;60.48;99443.02;2172722;81;21013;-81
2021/09/26 11:14:05;;;;;;;7.90;6.58;;;;;;;23.32;59.76;99439.63;2172682;81;20937;-79
2021/09/26 11:17:07;;;;;;;7.78;6.75;;;;;;;23.32;59.71;99438.30;2172264;82;21032;-79
2021/09/26 11:20:07;;;;;;;7.80;7.00;;;;;;;23.39;60.38;99433.19;2172799;81;20977;-80
2021/09/26 11:23:08;;;;;;;7.58;6.65;;;;;;;23.41;59.81;99432.26;2172328;81;20989;-80
2021/09/26 11:26:09;;;;;;;6.97;5.00;;;;;;;23.31;59.23;99439.22;2172885;81;20988;-80
2021/09/26 11:29:09;;;;;;;5.08;4.62;;;;;;;23.28;57.43;99438.84;2172752;81;20980;-80
2021/09/26 11:32:10;;;;;;;5.65;4.92;;;;;;;23.23;56.24;99440.78;2172639;81;20984;-80
2021/09/26 11:35:11;;;;;;;6.05;5.55;;;;;;;23.26;56.46;99430.03;2173280;81;21020;-81
2021/09/26 11:38:11;;;;;;;7.60;4.95;;;;;;;23.47;59.38;99432.53;2173552;82;21357;-82
2021/09/26 11:41:12;;;;;;;5.12;4.72;;;;;;;23.70;58.80;99426.50;2173804;82;20993;-81
2021/09/26 11:44:16;;;;;;;5.85;5.15;;;;;;;23.83;57.13;99426.52;2173527;81;21000;-81
2021/09/26 11:47:15;;;;;;;6.28;4.55;;;;;;;23.87;58.96;99422.83;2128771;84;21075;-81
2021/09/26 11:50:15;;;;;;;6.97;5.25;;;;;;;24.07;55.29;99424.83;2128878;84;21343;-82
2021/09/26 11:53:17;;;;;;;5.78;5.17;;;;;;;24.13;57.72;99429.48;2128761;84;20945;-82
2021/09/26 11:56:18;;;;;;;5.28;4.60;;;;;;;24.41;57.22;99423.27;2128860;84;20984;-82
2021/09/26 11:59:18;;;;;;;4.97;4.37;;;;;;;24.60;56.23;99421.69;2128628;84;20944;-82
2021/09/26 12:02:19;;;;;;;7.75;4.60;;;;;;;24.70;55.88;99416.42;2128748;84;20960;-81
2021/09/26 12:05:19;;;;;;;5.90;4.92;;;;;;;24.66;53.22;99414.79;2128513;84;21003;-82
2021/09/26 12:08:20;;;;;;;7.05;5.50;;;;;;;24.65;55.20;99406.37;2128989;84;21019;-83
2021/09/26 12:11:20;;;;;;;6.35;5.25;;;;;;;24.74;55.08;99409.17;2128386;84;21003;-80
2021/09/26 12:14:20;;;;;;;4.67;4.28;;;;;;;24.82;54.70;99406.22;2128371;84;20971;-82
2021/09/26 12:17:21;;;;;;;5.53;5.03;;;;;;;24.72;53.36;99405.22;2129199;84;21011;-82
2021/09/26 12:20:22;;;;;;;5.40;4.30;;;;;;;24.52;53.03;99406.41;2129230;84;20935;-81
2021/09/26 12:23:22;;;;;;;5.35;4.85;;;;;;;24.51;54.44;99403.34;2128804;84;21054;-81
2021/09/26 12:26:23;;;;;;;5.60;4.90;;;;;;;24.41;53.88;99405.46;2129049;84;21005;-81
2021/09/26 12:29:23;;;;;;;5.30;4.80;;;;;;;24.49;54.36;99398.98;2129265;84;20992;-83
2021/09/26 12:32:24;;;;;;;5.47;4.87;;;;;;;24.52;54.67;99401.08;2129029;84;20999;-80
2021/09/26 12:35:24;;;;;;;5.67;5.12;;;;;;;24.41;54.80;99397.92;2128568;84;20987;-80
2021/09/26 12:38:25;;;;;;;5.85;5.35;;;;;;;24.37;55.00;99397.16;2128421;84;21286;-81
2021/09/26 12:41:25;;;;;;;5.95;5.37;;;;;;;24.30;54.86;99394.77;2128458;84;20972;-82
2021/09/26 12:44:26;;;;;;;6.15;5.65;;;;;;;24.24;55.19;99394.45;2128366;84;21015;-80
2021/09/26 12:47:26;;;;;;;8.80;6.00;;;;;;;24.19;54.76;99393.73;2137508;82;21398;-82
2021/09/26 12:50:27;;;;;;;74.82;65.78;;;;;;;24.12;55.13;99397.08;2138316;83;21346;-82
2021/09/26 12:53:27;;;;;;;19.27;17.37;;;;;;;24.03;54.85;99391.19;2183533;82;20976;-82
2021/09/26 12:56:28;;;;;;;53.40;47.75;;;;;;;23.85;54.82;99397.14;2183829;82;20960;-82
2021/09/26 12:59:28;;;;;;;17.57;14.75;;;;;;;23.75;55.44;99394.78;2183195;82;21019;-81
2021/09/26 13:02:29;;;;;;;15.35;12.78;;;;;;;23.74;55.80;99396.16;2183073;82;20968;-82
2021/09/26 13:05:30;;;;;;;16.37;14.73;;;;;;;23.73;55.93;99401.95;2183382;82;21339;-82
2021/09/26 13:08:33;;;;;;;12.43;11.33;;;;;;;23.72;55.78;99398.01;2183130;82;21526;-81
2021/09/26 13:11:34;;;;;;;11.10;10.00;;;;;;;23.70;55.87;99391.86;2182992;82;20992;-81
2021/09/26 13:14:35;;;;;;;10.40;9.40;;;;;;;23.71;55.93;99392.27;2182576;82;20949;-81
2021/09/26 13:17:35;;;;;;;11.73;10.18;;;;;;;23.71;56.00;99385.14;2182456;82;21071;-82
2021/09/26 13:20:36;;;;;;;8.90;8.00;;;;;;;23.69;55.94;99383.45;2182583;82;21037;-81
2021/09/26 13:23:36;;;;;;;9.88;8.98;;;;;;;23.69;55.74;99380.78;2182839;82;20972;-81
2021/09/26 13:26:37;;;;;;;8.95;8.15;;;;;;;23.70;56.02;99381.20;2182931;81;21016;-81
2021/09/26 13:29:37;;;;;;;10.13;9.20;;;;;;;23.63;55.02;99375.19;2182830;81;20992;-81
2021/09/26 13:32:38;;;;;;;8.78;6.60;;;;;;;23.55;55.90;99378.56;2182678;82;20972;-81
2021/09/26 13:35:38;;;;;;;7.45;6.25;;;;;;;23.54;56.19;99381.25;2182917;82;20976;-81
2021/09/26 13:38:39;;;;;;;9.33;8.03;;;;;;;23.50;55.28;99376.02;2182792;81;21352;-82
2021/09/26 13:41:40;;;;;;;8.25;7.00;;;;;;;23.38;56.30;99379.50;2182641;82;20960;-81
2021/09/26 13:44:41;;;;;;;6.67;6.05;;;;;;;23.35;56.28;99376.47;2182440;82;20964;-81
2021/09/26 13:47:41;;;;;;;6.95;6.35;;;;;;;23.32;56.08;99380.56;2172694;81;21052;-82
2021/09/26 13:50:42;;;;;;;8.68;6.20;;;;;;;23.30;56.51;99379.74;2173587;81;21004;-82
2021/09/26 13:53:43;;;;;;;7.80;7.15;;;;;;;23.32;56.65;99380.56;2173095;81;21024;-82
2021/09/26 13:56:43;;;;;;;6.62;6.10;;;;;;;23.34;56.52;99382.72;2173827;81;20964;-82